Time;durP1;ratioP1;P1;durP2;ratioP2;P2;SDS_P1;SDS_P2;PMS_P1;PMS_P2;Temp;Humidity;BMP_temperature;BMP_pressure;BME280_temperature;BME280_humidity;BME280_pressure;Samples;Min_cycle;Max_cycle;Signal;HPM_P1;HPM_P2
2023/06/13 00:01:04;;;;;;;11.50;6.25;;;;;;;-144.87;100.00;61487.56;5044079;28;20041;-70
2023/06/13 00:03:33;;;;;;;12.45;6.30;;;;;;;-144.87;100.00;61487.56;5021876;28;20045;-70
2023/06/13 00:06:01;;;;;;;9.85;6.90;;;;;;;-144.87;100.00;61487.56;5012638;28;20050;-70
2023/06/13 00:08:31;;;;;;;14.20;6.20;;;;;;;-144.87;100.00;61487.56;5018014;28;20124;-70
2023/06/13 00:11:00;;;;;;;11.77;6.20;;;;;;;-144.87;100.00;61487.56;4996176;28;20073;-70
2023/06/13 00:13:27;;;;;;;13.73;6.85;;;;;;;-144.87;100.00;61487.56;5001303;28;20288;-71
2023/06/13 00:15:56;;;;;;;10.85;6.30;;;;;;;-144.87;100.00;61487.56;4983913;28;20124;-70
2023/06/13 00:18:23;;;;;;;13.25;6.57;;;;;;;-144.87;100.00;61487.56;4992891;28;20038;-69
2023/06/13 00:20:54;;;;;;;13.30;6.50;;;;;;;-144.87;100.00;61487.56;5000457;28;20053;-70
2023/06/13 00:23:22;;;;;;;15.77;6.28;;;;;;;-144.87;100.00;61487.56;4978922;28;20089;-69
2023/06/13 00:25:48;;;;;;;14.55;6.40;;;;;;;-144.87;100.00;61487.56;4994553;28;20030;-69
2023/06/13 00:28:15;;;;;;;12.63;6.68;;;;;;;-144.87;100.00;61487.56;5007681;28;20051;-70
2023/06/13 00:30:41;;;;;;;11.52;6.72;;;;;;;-144.87;100.00;61487.56;4979318;28;20473;-71
2023/06/13 00:33:07;;;;;;;11.13;5.93;;;;;;;-144.87;100.00;61487.56;4977630;28;20057;-70
2023/06/13 00:35:34;;;;;;;12.05;6.10;;;;;;;-144.87;100.00;61487.56;5030170;28;20034;-70
2023/06/13 00:38:02;;;;;;;10.23;6.78;;;;;;;-144.87;100.00;61487.56;5004644;28;20105;-70
2023/06/13 00:40:28;;;;;;;7.50;6.03;;;;;;;-144.87;100.00;61487.56;4972356;28;20045;-69
2023/06/13 00:42:56;;;;;;;10.70;6.20;;;;;;;-144.87;100.00;61487.56;4964011;28;20030;-70
2023/06/13 00:45:27;;;;;;;11.65;6.43;;;;;;;-144.87;100.00;61487.56;4973394;28;20039;-69
2023/06/13 00:47:55;;;;;;;15.43;6.95;;;;;;;-144.87;100.00;61487.56;5005043;28;20025;-69
2023/06/13 00:50:31;;;;;;;12.68;6.40;;;;;;;-144.87;100.00;61487.56;5012295;28;20099;-70
2023/06/13 00:53:09;;;;;;;11.27;6.68;;;;;;;-144.87;100.00;61487.56;4988985;28;20037;-69
2023/06/13 00:55:36;;;;;;;12.27;6.80;;;;;;;-144.87;100.00;61487.56;4994522;28;20503;-72
2023/06/13 00:58:10;;;;;;;10.68;6.97;;;;;;;-144.87;100.00;61487.56;4992998;28;20030;-71
2023/06/13 01:00:40;;;;;;;14.50;6.50;;;;;;;-144.87;100.00;61487.56;5011977;28;20041;-70
2023/06/13 01:03:08;;;;;;;10.45;6.65;;;;;;;-144.87;100.00;61487.56;5002600;28;20034;-70
2023/06/13 01:05:35;;;;;;;10.68;6.40;;;;;;;-144.87;100.00;61487.56;4994548;28;20030;-70
2023/06/13 01:08:07;;;;;;;15.27;6.63;;;;;;;-144.87;100.00;61487.56;5003536;28;20045;-70
2023/06/13 01:10:34;;;;;;;9.30;5.97;;;;;;;-144.87;100.00;61487.56;5033714;28;20056;-69
2023/06/13 01:13:13;;;;;;;12.02;6.38;;;;;;;-144.87;100.00;61487.56;5021047;28;20176;-70
2023/06/13 01:15:49;;;;;;;9.77;6.63;;;;;;;-144.87;100.00;61487.56;5020420;28;20446;-69
2023/06/13 01:18:15;;;;;;;9.75;6.90;;;;;;;-144.87;100.00;61487.56;5028359;28;20112;-69
2023/06/13 01:20:44;;;;;;;10.60;6.63;;;;;;;-144.87;100.00;61487.56;5031772;28;20064;-70
2023/06/13 01:23:23;;;;;;;11.38;6.03;;;;;;;-144.87;100.00;61487.56;4996956;28;20041;-70
2023/06/13 01:26:12;;;;;;;10.73;6.72;;;;;;;-144.87;100.00;61487.56;5026834;28;20105;-69
2023/06/13 01:28:41;;;;;;;10.73;6.35;;;;;;;-144.87;100.00;61487.56;5000220;28;20112;-69
2023/06/13 01:31:12;;;;;;;15.35;6.55;;;;;;;-144.87;100.00;61487.56;5033198;28;20041;-68
2023/06/13 01:33:38;;;;;;;;;;;;;;;-144.87;100.00;61487.56;5006058;28;20073;-71
2023/06/13 01:36:05;;;;;;;8.85;6.30;;;;;;;-144.87;100.00;61487.56;5032223;28;20002;-70
2023/06/13 01:38:31;;;;;;;10.45;6.43;;;;;;;-144.87;100.00;61487.56;5012847;28;20053;-69
2023/06/13 01:40:58;;;;;;;13.70;6.28;;;;;;;-144.87;100.00;61487.56;5015718;28;20046;-70
2023/06/13 01:43:24;;;;;;;9.73;6.90;;;;;;;-144.87;100.00;61487.56;5029222;28;20422;-70
2023/06/13 01:46:10;;;;;;;9.25;7.03;;;;;;;-144.87;100.00;61487.56;5013990;28;20078;-70
2023/06/13 01:49:08;;;;;;;9.52;7.00;;;;;;;-144.87;100.00;61487.56;5013052;28;20060;-70
2023/06/13 01:51:50;;;;;;;10.73;6.70;;;;;;;-144.87;100.00;61487.56;5014813;28;20056;-70
2023/06/13 01:54:19;;;;;;;10.10;6.90;;;;;;;-144.87;100.00;61487.56;5021522;28;20033;-70
2023/06/13 01:56:54;;;;;;;9.02;6.93;;;;;;;-144.87;100.00;61487.56;5027362;28;20029;-69
2023/06/13 01:59:25;;;;;;;12.27;7.05;;;;;;;-144.87;100.00;61487.56;5004233;28;20084;-69
2023/06/13 02:01:52;;;;;;;10.65;6.78;;;;;;;-144.87;100.00;61487.56;5023082;28;20049;-69
2023/06/13 02:04:18;;;;;;;13.85;6.75;;;;;;;-144.87;100.00;61487.56;5025526;28;20116;-69
2023/06/13 02:06:45;;;;;;;12.63;7.25;;;;;;;-144.87;100.00;61487.56;5016741;28;20376;-68
2023/06/13 02:09:13;;;;;;;10.68;6.90;;;;;;;-144.87;100.00;61487.56;5018962;28;20049;-70
2023/06/13 02:11:40;;;;;;;15.23;7.22;;;;;;;-144.87;100.00;61487.56;5002504;28;20083;-70
2023/06/13 02:14:07;;;;;;;11.27;6.82;;;;;;;-144.87;100.00;61487.56;5024401;28;20053;-71
2023/06/13 02:16:34;;;;;;;13.02;7.43;;;;;;;-144.87;100.00;61487.56;5027051;28;20060;-70
2023/06/13 02:19:01;;;;;;;12.10;6.85;;;;;;;-144.87;100.00;61487.56;5020740;28;20042;-69
2023/06/13 02:21:29;;;;;;;11.85;7.05;;;;;;;-144.87;100.00;61487.56;5014054;28;20041;-70
2023/06/13 02:23:55;;;;;;;10.40;7.28;;;;;;;-144.87;100.00;61487.56;5028664;28;20730;-69
2023/06/13 02:26:23;;;;;;;17.52;7.00;;;;;;;-144.87;100.00;61487.56;5023375;28;20033;-69
2023/06/13 02:28:50;;;;;;;12.48;7.82;;;;;;;-144.87;100.00;61487.56;5032212;28;20065;-69
2023/06/13 02:31:17;;;;;;;11.15;7.88;;;;;;;-144.87;100.00;61487.56;5028119;28;20069;-70
2023/06/13 02:33:43;;;;;;;11.45;7.55;;;;;;;-144.87;100.00;61487.56;5027834;28;20033;-70
2023/06/13 02:36:12;;;;;;;16.77;7.80;;;;;;;-144.87;100.00;61487.56;5031595;28;20041;-70
2023/06/13 02:38:41;;;;;;;16.27;7.80;;;;;;;-144.87;100.00;61487.56;5030421;28;20052;-69
2023/06/13 02:41:08;;;;;;;10.68;7.80;;;;;;;-144.87;100.00;61487.56;5030559;28;20042;-69
2023/06/13 02:43:35;;;;;;;11.38;7.47;;;;;;;-144.87;100.00;61487.56;5023469;28;20045;-70
2023/06/13 02:46:02;;;;;;;17.85;8.25;;;;;;;-144.87;100.00;61487.56;5014587;28;20033;-69
2023/06/13 02:48:28;;;;;;;12.43;8.20;;;;;;;-144.87;100.00;61487.56;5015428;28;20044;-71
2023/06/13 02:50:56;;;;;;;10.27;7.55;;;;;;;-144.87;100.00;61487.56;5020287;28;20041;-70
2023/06/13 02:53:22;;;;;;;12.35;7.75;;;;;;;-144.87;100.00;61487.56;5026959;28;20042;-70
2023/06/13 02:55:48;;;;;;;13.13;7.70;;;;;;;-144.87;100.00;61487.56;5011503;28;20121;-69
2023/06/13 02:58:15;;;;;;;15.80;8.05;;;;;;;-144.87;100.00;61487.56;5011128;28;20030;-70
2023/06/13 03:00:41;;;;;;;15.98;8.30;;;;;;;-144.87;100.00;61487.56;5014758;28;20045;-70
2023/06/13 03:03:11;;;;;;;16.27;8.52;;;;;;;-144.87;100.00;61487.56;5021485;28;20128;-69
2023/06/13 03:05:38;;;;;;;19.02;8.40;;;;;;;-144.87;100.00;61487.56;5008469;28;20084;-70
2023/06/13 03:08:07;;;;;;;15.68;7.57;;;;;;;-144.87;100.00;61487.56;5026045;28;20068;-70
2023/06/13 03:10:33;;;;;;;13.93;8.30;;;;;;;-144.87;100.00;61487.56;5013663;28;20103;-70
2023/06/13 03:13:00;;;;;;;15.50;7.93;;;;;;;-144.87;100.00;61487.56;5004349;28;20041;-70
2023/06/13 03:15:27;;;;;;;15.57;8.23;;;;;;;-144.87;100.00;61487.56;5020479;28;20037;-70
2023/06/13 03:17:53;;;;;;;12.35;8.27;;;;;;;-144.87;100.00;61487.56;5014300;28;20048;-71
2023/06/13 03:20:21;;;;;;;16.98;9.05;;;;;;;-144.87;100.00;61487.56;5009850;28;20040;-70
2023/06/13 03:22:48;;;;;;;22.80;8.70;;;;;;;-144.87;100.00;61487.56;5005063;28;20106;-70
2023/06/13 03:25:16;;;;;;;12.20;8.80;;;;;;;-144.87;100.00;61487.56;5014536;28;20034;-69
2023/06/13 03:27:47;;;;;;;14.45;8.48;;;;;;;-144.87;100.00;61487.56;4998724;28;20044;-69
2023/06/13 03:30:14;;;;;;;12.32;8.48;;;;;;;-144.87;100.00;61487.56;5004244;28;20066;-70
2023/06/13 03:32:42;;;;;;;15.77;8.38;;;;;;;-144.87;100.00;61487.56;5006268;28;20490;-70
2023/06/13 03:35:08;;;;;;;15.15;8.43;;;;;;;-144.87;100.00;61487.56;5021068;28;20104;-70
2023/06/13 03:37:35;;;;;;;18.50;9.35;;;;;;;-144.87;100.00;61487.56;5025274;28;20212;-70
2023/06/13 03:40:01;;;;;;;13.45;9.00;;;;;;;-144.87;100.00;61487.56;5011193;28;20069;-70
2023/06/13 03:42:29;;;;;;;13.73;8.13;;;;;;;-144.87;100.00;61487.56;4997588;28;20038;-70
2023/06/13 03:44:55;;;;;;;15.90;8.80;;;;;;;-144.87;100.00;61487.56;5021810;28;20117;-70
2023/06/13 03:47:22;;;;;;;21.35;8.77;;;;;;;-144.87;100.00;61487.56;5014759;28;20037;-70
2023/06/13 03:49:48;;;;;;;15.43;8.55;;;;;;;-144.87;100.00;61487.56;5018593;28;20046;-70
2023/06/13 03:52:14;;;;;;;16.58;8.20;;;;;;;-144.87;100.00;61487.56;5005932;28;20065;-70
2023/06/13 03:54:41;;;;;;;13.65;8.25;;;;;;;-144.87;100.00;61487.56;5032051;28;20041;-70
2023/06/13 03:57:08;;;;;;;13.02;8.43;;;;;;;-144.87;100.00;61487.56;5017497;28;20029;-68
2023/06/13 03:59:35;;;;;;;19.33;8.23;;;;;;;-144.87;100.00;61487.56;5031176;28;20554;-69
2023/06/13 04:02:03;;;;;;;14.95;8.25;;;;;;;-144.87;100.00;61487.56;5014894;28;20124;-70
2023/06/13 04:04:29;;;;;;;14.60;8.65;;;;;;;-144.87;100.00;61487.56;5009165;28;20443;-70
2023/06/13 04:06:55;;;;;;;14.13;8.13;;;;;;;-144.87;100.00;61487.56;5012711;28;20092;-71
2023/06/13 04:09:23;;;;;;;13.90;8.10;;;;;;;-144.87;100.00;61487.56;4987093;28;20380;-70
2023/06/13 04:11:49;;;;;;;12.55;8.13;;;;;;;-144.87;100.00;61487.56;5007720;28;20096;-70
2023/06/13 04:14:16;;;;;;;13.52;8.13;;;;;;;-144.87;100.00;61487.56;4977663;28;20446;-69
2023/06/13 04:16:43;;;;;;;20.67;8.73;;;;;;;-144.87;100.00;61487.56;5001634;28;20031;-70
2023/06/13 04:19:09;;;;;;;16.25;9.05;;;;;;;-144.87;100.00;61487.56;4992281;28;20064;-70
2023/06/13 04:21:36;;;;;;;12.85;8.63;;;;;;;-144.87;100.00;61487.56;4978173;28;20046;-70
2023/06/13 04:24:02;;;;;;;12.40;8.27;;;;;;;-144.87;100.00;61487.56;4987687;28;20034;-70
2023/06/13 04:26:29;;;;;;;13.70;7.65;;;;;;;-144.87;100.00;61487.56;4986007;28;20034;-70
2023/06/13 04:28:55;;;;;;;12.70;7.68;;;;;;;-144.87;100.00;61487.56;4968601;28;20107;-70
2023/06/13 04:31:22;;;;;;;16.05;8.35;;;;;;;-144.87;100.00;61487.56;4989282;28;20228;-71
2023/06/13 04:33:48;;;;;;;13.52;8.43;;;;;;;-144.87;100.00;61487.56;4974201;28;20046;-72
2023/06/13 04:36:15;;;;;;;11.38;7.38;;;;;;;-144.87;100.00;61487.56;5006369;28;20846;-71
2023/06/13 04:38:43;;;;;;;14.90;7.40;;;;;;;-144.87;100.00;61487.56;4996290;28;20046;-75
2023/06/13 04:41:10;;;;;;;14.15;7.97;;;;;;;-144.87;100.00;61487.56;4968452;28;20487;-71
2023/06/13 04:43:41;;;;;;;15.93;7.88;;;;;;;-144.87;100.00;61487.56;4983110;28;20057;-72
2023/06/13 04:46:10;;;;;;;10.68;7.82;;;;;;;-144.87;100.00;61487.56;4994467;28;20100;-70
2023/06/13 04:48:37;;;;;;;16.63;8.13;;;;;;;-144.87;100.00;61487.56;4991508;28;20046;-70
2023/06/13 04:51:08;;;;;;;12.48;7.60;;;;;;;-144.87;100.00;61487.56;4996803;28;20690;-70
2023/06/13 04:53:37;;;;;;;11.57;7.85;;;;;;;-144.87;100.00;61487.56;5005189;28;20049;-69
2023/06/13 04:56:05;;;;;;;13.75;8.60;;;;;;;-144.87;100.00;61487.56;4977568;28;20034;-69
2023/06/13 04:58:31;;;;;;;13.27;7.75;;;;;;;-144.87;100.00;61487.56;4994227;28;20041;-70
2023/06/13 05:00:59;;;;;;;16.23;7.88;;;;;;;-144.87;100.00;61487.56;4991854;28;20031;-70
2023/06/13 05:03:26;;;;;;;15.68;8.07;;;;;;;-144.87;100.00;61487.56;4999081;28;20120;-70
2023/06/13 05:05:53;;;;;;;10.63;7.32;;;;;;;-144.87;100.00;61487.56;5009407;28;20037;-70
2023/06/13 05:08:21;;;;;;;9.43;7.40;;;;;;;-144.87;100.00;61487.56;5005093;28;20045;-70
2023/06/13 05:10:48;;;;;;;14.45;7.93;;;;;;;-144.87;100.00;61487.56;5021204;28;20131;-70
2023/06/13 05:13:14;;;;;;;12.45;7.43;;;;;;;-144.87;100.00;61487.56;5021010;28;20457;-70
2023/06/13 05:15:45;;;;;;;10.57;7.55;;;;;;;-144.87;100.00;61487.56;5001873;28;20310;-71
2023/06/13 05:18:14;;;;;;;10.40;7.93;;;;;;;-144.87;100.00;61487.56;5016153;28;20041;-71
2023/06/13 05:20:45;;;;;;;11.95;7.60;;;;;;;-144.87;100.00;61487.56;5029647;28;20411;-70
2023/06/13 05:23:13;;;;;;;13.82;7.82;;;;;;;-144.87;100.00;61487.56;5014399;28;20088;-69
2023/06/13 05:25:39;;;;;;;14.18;7.50;;;;;;;-144.87;100.00;61487.56;5011602;28;20048;-70
2023/06/13 05:28:06;;;;;;;18.20;8.50;;;;;;;-144.87;100.00;61487.56;5027415;28;20083;-70
2023/06/13 05:30:32;;;;;;;12.43;7.47;;;;;;;-144.87;100.00;61487.56;5017699;28;20038;-71
2023/06/13 05:32:58;;;;;;;16.65;7.93;;;;;;;-144.87;100.00;61487.56;5026956;28;20045;-70
2023/06/13 05:35:25;;;;;;;28.20;8.45;;;;;;;-144.87;100.00;61487.56;5013025;28;20045;-71
2023/06/13 05:37:51;;;;;;;19.55;7.38;;;;;;;-144.87;100.00;61487.56;5028824;28;20080;-71
2023/06/13 05:40:18;;;;;;;25.10;8.10;;;;;;;-144.87;100.00;61487.56;5023106;28;20126;-70
2023/06/13 05:42:44;;;;;;;36.85;7.60;;;;;;;-144.87;100.00;61487.56;5018827;28;20045;-69
2023/06/13 05:45:11;;;;;;;26.88;8.43;;;;;;;-144.87;100.00;61487.56;5019861;28;20418;-71
2023/06/13 05:47:37;;;;;;;14.68;7.65;;;;;;;-144.87;100.00;61487.56;5013055;28;20116;-70
2023/06/13 05:50:04;;;;;;;38.75;8.77;;;;;;;-144.87;100.00;61487.56;5025710;28;20029;-71
2023/06/13 05:52:30;;;;;;;31.27;7.90;;;;;;;-144.87;100.00;61487.56;5015080;28;20072;-69
2023/06/13 05:54:57;;;;;;;22.30;7.38;;;;;;;-144.87;100.00;61487.56;5013757;28;20495;-71
2023/06/13 05:57:30;;;;;;;26.13;8.27;;;;;;;-144.87;100.00;61487.56;5020140;28;20034;-70
2023/06/13 05:59:56;;;;;;;21.08;8.02;;;;;;;-144.87;100.00;61487.56;4996252;28;20030;-70
2023/06/13 06:02:22;;;;;;;25.80;7.97;;;;;;;-144.87;100.00;61487.56;5017990;28;20143;-70
2023/06/13 06:04:48;;;;;;;32.58;8.15;;;;;;;-144.87;100.00;61487.56;5023166;28;20032;-71
2023/06/13 06:07:18;;;;;;;38.45;7.60;;;;;;;-144.87;100.00;61487.56;5023930;28;20159;-70
2023/06/13 06:09:44;;;;;;;17.55;7.78;;;;;;;-144.87;100.00;61487.56;5014327;28;20113;-71
2023/06/13 06:12:11;;;;;;;15.57;7.80;;;;;;;-144.87;100.00;61487.56;4973959;28;20088;-69
2023/06/13 06:14:37;;;;;;;13.40;7.07;;;;;;;-144.87;100.00;61487.56;4987342;28;20134;-72
2023/06/13 06:17:04;;;;;;;13.55;7.13;;;;;;;-144.87;100.00;61487.56;4999544;28;20030;-70
2023/06/13 06:19:31;;;;;;;9.55;7.20;;;;;;;-144.87;100.00;61487.56;4980114;28;20034;-69
2023/06/13 06:21:57;;;;;;;11.55;7.10;;;;;;;-144.87;100.00;61487.56;4993936;28;20380;-70
2023/06/13 06:24:23;;;;;;;20.55;7.22;;;;;;;-144.87;100.00;61487.56;4993215;28;20095;-69
2023/06/13 06:26:49;;;;;;;20.58;7.90;;;;;;;-144.87;100.00;61487.56;4993627;28;20030;-70
2023/06/13 06:29:16;;;;;;;31.73;7.18;;;;;;;-144.87;100.00;61487.56;5004399;28;20525;-71
2023/06/13 06:31:42;;;;;;;38.60;8.07;;;;;;;-144.87;100.00;61487.56;4979915;28;20272;-69
2023/06/13 06:34:08;;;;;;;41.60;7.95;;;;;;;-144.87;100.00;61487.56;4997658;28;20125;-69
2023/06/13 06:36:35;;;;;;;38.20;8.18;;;;;;;-144.87;100.00;61487.56;4996637;28;20593;-70
2023/06/13 06:39:02;;;;;;;27.40;7.25;;;;;;;-144.87;100.00;61487.56;5002153;28;20038;-70
2023/06/13 06:41:28;;;;;;;33.63;7.55;;;;;;;-144.87;100.00;61487.56;4993949;28;20050;-70
2023/06/13 06:43:55;;;;;;;30.45;7.40;;;;;;;-144.87;100.00;61487.56;5004489;28;20040;-72
2023/06/13 06:46:24;;;;;;;56.53;8.80;;;;;;;-144.87;100.00;61487.56;4979385;28;20471;-70
2023/06/13 06:48:51;;;;;;;22.95;6.82;;;;;;;-144.87;100.00;61487.56;5001164;28;20045;-70
2023/06/13 06:51:17;;;;;;;21.83;6.50;;;;;;;-144.87;100.00;61487.56;4986458;28;20034;-70
2023/06/13 06:53:44;;;;;;;22.85;7.80;;;;;;;-144.87;100.00;61487.56;4986289;28;20034;-71
2023/06/13 06:56:10;;;;;;;24.45;7.18;;;;;;;-144.87;100.00;61487.56;4974754;28;20061;-70
2023/06/13 06:58:36;;;;;;;26.45;7.07;;;;;;;-144.87;100.00;61487.56;4984287;28;20143;-69
2023/06/13 07:01:03;;;;;;;24.70;6.78;;;;;;;-144.87;100.00;61487.56;4977952;28;20106;-70
2023/06/13 07:03:29;;;;;;;37.47;7.47;;;;;;;-144.87;100.00;61487.56;4973376;28;20046;-70
2023/06/13 07:05:56;;;;;;;29.25;6.65;;;;;;;-144.87;100.00;61487.56;4997998;28;20034;-71
2023/06/13 07:08:22;;;;;;;12.30;6.00;;;;;;;-144.87;100.00;61487.56;4983817;28;20026;-70
2023/06/13 07:10:48;;;;;;;17.88;7.00;;;;;;;-144.87;100.00;61487.56;4999476;28;20164;-71
2023/06/13 07:13:15;;;;;;;20.50;6.35;;;;;;;-144.87;100.00;61487.56;4981208;28;20045;-68
2023/06/13 07:15:41;;;;;;;9.23;5.93;;;;;;;-144.87;100.00;61487.56;4996687;28;20125;-72
2023/06/13 07:18:08;;;;;;;8.30;5.90;;;;;;;-144.87;100.00;61487.56;5000430;28;20075;-71
2023/06/13 07:20:34;;;;;;;14.88;6.30;;;;;;;-144.87;100.00;61487.56;4962962;28;20041;-71
2023/06/13 07:23:00;;;;;;;9.98;5.53;;;;;;;-144.87;100.00;61487.56;4991648;28;20049;-70
2023/06/13 07:25:27;;;;;;;10.43;5.68;;;;;;;-144.87;100.00;61487.56;5000454;28;20405;-70
2023/06/13 07:27:54;;;;;;;24.30;6.75;;;;;;;-144.87;100.00;61487.56;4986099;28;20026;-70
2023/06/13 07:30:20;;;;;;;20.63;6.15;;;;;;;-144.87;100.00;61487.56;4985696;28;20042;-70
2023/06/13 07:32:47;;;;;;;17.35;5.97;;;;;;;-144.87;100.00;61487.56;4986067;28;20030;-69
2023/06/13 07:35:16;;;;;;;13.18;6.10;;;;;;;-144.87;100.00;61487.56;5000322;28;20034;-70
2023/06/13 07:37:42;;;;;;;8.77;5.70;;;;;;;-144.87;100.00;61487.56;4985807;28;20070;-71
2023/06/13 07:40:09;;;;;;;27.42;6.20;;;;;;;-144.87;100.00;61487.56;4986948;28;20081;-69
2023/06/13 07:42:36;;;;;;;27.20;6.47;;;;;;;-144.87;100.00;61487.56;5001093;28;20507;-70
2023/06/13 07:45:02;;;;;;;20.85;6.10;;;;;;;-144.87;100.00;61487.56;4975813;28;20058;-71
2023/06/13 07:47:28;;;;;;;27.15;6.50;;;;;;;-144.87;100.00;61487.56;4991548;28;20057;-73
2023/06/13 07:49:55;;;;;;;24.63;6.60;;;;;;;-144.87;100.00;61487.56;5002392;28;20033;-72
2023/06/13 07:52:21;;;;;;;44.10;5.97;;;;;;;-144.87;100.00;61487.56;5002169;28;20522;-71
2023/06/13 07:54:47;;;;;;;45.38;8.55;;;;;;;-144.87;100.00;61487.56;5004565;28;20030;-72
2023/06/13 07:57:13;;;;;;;22.92;6.05;;;;;;;-144.87;100.00;61487.56;4987459;28;20046;-72
2023/06/13 07:59:40;;;;;;;31.48;6.32;;;;;;;-144.87;100.00;61487.56;4979144;28;20042;-72
2023/06/13 08:02:07;;;;;;;24.48;6.13;;;;;;;-144.87;100.00;61487.56;4974455;28;20103;-71
2023/06/13 08:04:33;;;;;;;41.17;6.82;;;;;;;-144.87;100.00;61487.56;4962598;28;20034;-72
2023/06/13 08:06:59;;;;;;;38.00;7.72;;;;;;;-144.87;100.00;61487.56;4998790;28;20042;-70
2023/06/13 08:09:25;;;;;;;34.33;7.07;;;;;;;-144.87;100.00;61487.56;5003799;28;20048;-70
2023/06/13 08:11:53;;;;;;;28.15;6.30;;;;;;;-144.87;100.00;61487.56;4994099;28;20518;-71
2023/06/13 08:14:19;;;;;;;31.92;6.88;;;;;;;-144.87;100.00;61487.56;4979297;28;20034;-71
2023/06/13 08:16:48;;;;;;;31.80;6.97;;;;;;;-144.87;100.00;61487.56;4973908;28;20034;-71
2023/06/13 08:19:15;;;;;;;36.47;8.15;;;;;;;-144.87;100.00;61487.56;4987424;28;20080;-71
2023/06/13 08:21:41;;;;;;;11.05;5.50;;;;;;;-144.87;100.00;61487.56;4973238;28;20489;-70
2023/06/13 08:24:08;;;;;;;49.17;8.07;;;;;;;-144.87;100.00;61487.56;4975752;28;20073;-72
2023/06/13 08:26:34;;;;;;;43.75;6.38;;;;;;;-144.87;100.00;61487.56;4978945;28;20138;-72
2023/06/13 08:29:01;;;;;;;27.02;7.13;;;;;;;-144.87;100.00;61487.56;4994694;28;20141;-72
2023/06/13 08:31:31;;;;;;;28.63;6.20;;;;;;;-144.87;100.00;61487.56;5015022;28;20092;-69
2023/06/13 08:33:59;;;;;;;51.63;7.60;;;;;;;-144.87;100.00;61487.56;4993627;28;20030;-70
2023/06/13 08:36:26;;;;;;;48.03;7.65;;;;;;;-144.87;100.00;61487.56;4993097;28;20037;-71
2023/06/13 08:38:55;;;;;;;21.70;6.80;;;;;;;-144.87;100.00;61487.56;4988883;28;20091;-72
2023/06/13 08:41:21;;;;;;;29.55;6.53;;;;;;;-144.87;100.00;61487.56;4990994;28;20400;-71
2023/06/13 08:43:48;;;;;;;15.98;6.10;;;;;;;-144.87;100.00;61487.56;4957604;28;20130;-73
2023/06/13 08:46:14;;;;;;;41.92;7.78;;;;;;;-144.87;100.00;61487.56;4992371;28;20568;-72
2023/06/13 08:48:42;;;;;;;30.80;6.95;;;;;;;-144.87;100.00;61487.56;4976490;28;20264;-71
2023/06/13 08:51:16;;;;;;;20.30;6.63;;;;;;;-144.87;100.00;61487.56;4991590;28;20045;-71
2023/06/13 08:53:59;;;;;;;22.90;6.38;;;;;;;-144.87;100.00;61487.56;4977372;28;20491;-73
2023/06/13 08:56:28;;;;;;;25.83;6.18;;;;;;;-144.87;100.00;61487.56;4993173;28;20092;-72
2023/06/13 08:59:02;;;;;;;46.75;7.97;;;;;;;-144.87;100.00;61487.56;5005042;28;20121;-73
2023/06/13 09:01:28;;;;;;;49.92;7.43;;;;;;;-144.87;100.00;61487.56;5001339;28;20415;-70
2023/06/13 09:03:57;;;;;;;54.95;7.00;;;;;;;-144.87;100.00;61487.56;4979060;28;20045;-71
2023/06/13 09:06:24;;;;;;;32.22;6.93;;;;;;;-144.87;100.00;61487.56;4996845;28;20113;-71
2023/06/13 09:08:51;;;;;;;31.52;6.43;;;;;;;-144.87;100.00;61487.56;4990796;28;20504;-70
2023/06/13 09:11:20;;;;;;;51.25;7.55;;;;;;;-144.87;100.00;61487.56;4999589;28;20025;-72
2023/06/13 09:13:47;;;;;;;53.03;7.15;;;;;;;-144.87;100.00;61487.56;5007704;28;20048;-73
2023/06/13 09:16:13;;;;;;;25.27;6.28;;;;;;;-144.87;100.00;61487.56;4973413;28;20030;-71
2023/06/13 09:18:43;;;;;;;34.45;6.65;;;;;;;-144.87;100.00;61487.56;4977871;28;20035;-71
2023/06/13 09:21:10;;;;;;;33.28;6.85;;;;;;;-144.87;100.00;61487.56;4992269;28;20026;-72
2023/06/13 09:23:38;;;;;;;12.98;6.10;;;;;;;-144.87;100.00;61487.56;4994529;28;20057;-71
2023/06/13 09:26:04;;;;;;;30.33;6.40;;;;;;;-144.87;100.00;61487.56;4990826;28;20026;-70
2023/06/13 09:28:39;;;;;;;85.03;9.57;;;;;;;-144.87;100.00;61487.56;5019553;28;20037;-72
2023/06/13 09:31:07;;;;;;;21.27;6.22;;;;;;;-144.87;100.00;61487.56;5007150;28;20096;-71
2023/06/13 09:33:34;;;;;;;14.60;5.38;;;;;;;-144.87;100.00;61487.56;4979419;28;20042;-71
2023/06/13 09:36:01;;;;;;;27.88;6.30;;;;;;;-144.87;100.00;61487.56;4997645;28;20117;-70
2023/06/13 09:38:27;;;;;;;33.33;6.97;;;;;;;-144.87;100.00;61487.56;4982887;28;20038;-72
2023/06/13 09:40:55;;;;;;;47.28;6.93;;;;;;;-144.87;100.00;61487.56;4999268;28;20093;-72
2023/06/13 09:43:22;;;;;;;29.45;6.30;;;;;;;-144.87;100.00;61487.56;5008011;28;20038;-72
2023/06/13 09:45:50;;;;;;;15.38;6.07;;;;;;;-144.87;100.00;61487.56;4981882;28;20482;-71
2023/06/13 09:48:18;;;;;;;19.00;5.53;;;;;;;-144.87;100.00;61487.56;4976737;28;20062;-71
2023/06/13 09:50:46;;;;;;;28.25;7.13;;;;;;;-144.87;100.00;61487.56;4996861;28;20060;-72
2023/06/13 09:53:18;;;;;;;29.08;7.22;;;;;;;-144.87;100.00;61487.56;4991642;28;20058;-71
2023/06/13 09:55:44;;;;;;;37.83;6.82;;;;;;;-144.87;100.00;61487.56;4984824;28;20117;-73
2023/06/13 09:58:10;;;;;;;18.50;6.13;;;;;;;-144.87;100.00;61487.56;4975696;28;20089;-70
2023/06/13 10:00:37;;;;;;;16.95;6.18;;;;;;;-144.87;100.00;61487.56;4992963;28;20499;-72
2023/06/13 10:03:03;;;;;;;39.42;6.50;;;;;;;-144.87;100.00;61487.56;4985080;28;20585;-71
2023/06/13 10:05:29;;;;;;;17.60;6.45;;;;;;;-144.87;100.00;61487.56;4985418;28;20091;-72
2023/06/13 10:07:56;;;;;;;150.55;13.48;;;;;;;-144.87;100.00;61487.56;4982849;28;20147;-71
2023/06/13 10:10:23;;;;;;;30.90;6.55;;;;;;;-144.87;100.00;61487.56;5018617;28;20423;-72
2023/06/13 10:12:55;;;;;;;16.83;6.43;;;;;;;-144.87;100.00;61487.56;5014941;28;20121;-71
2023/06/13 10:15:47;;;;;;;23.88;6.43;;;;;;;-144.87;100.00;61487.56;5014977;28;20072;-72
2023/06/13 10:18:15;;;;;;;15.40;5.70;;;;;;;-144.87;100.00;61487.56;4987158;28;20561;-71
2023/06/13 10:20:44;;;;;;;32.55;6.93;;;;;;;-144.87;100.00;61487.56;4996192;28;20037;-71
2023/06/13 10:23:11;;;;;;;17.10;6.25;;;;;;;-144.87;100.00;61487.56;4992641;28;20034;-71
2023/06/13 10:25:38;;;;;;;29.05;6.75;;;;;;;-144.87;100.00;61487.56;5002190;28;20038;-71
2023/06/13 10:28:40;;;;;;;16.80;7.05;;;;;;;-144.87;100.00;61487.56;4976242;28;20034;-71
2023/06/13 10:31:15;;;;;;;29.70;6.38;;;;;;;-144.87;100.00;61487.56;4993476;28;20045;-72
2023/06/13 10:33:50;;;;;;;16.77;5.90;;;;;;;-144.87;100.00;61487.56;4995621;28;20033;-71
2023/06/13 10:36:52;;;;;;;7.63;5.65;;;;;;;-144.87;100.00;61487.56;4997103;28;20038;-71
2023/06/13 10:39:26;;;;;;;12.43;6.47;;;;;;;-144.87;100.00;61487.56;5014311;28;20045;-71
2023/06/13 10:42:16;;;;;;;12.63;5.80;;;;;;;-144.87;100.00;61487.56;5008259;28;20100;-70
2023/06/13 10:44:51;;;;;;;14.85;5.70;;;;;;;-144.87;100.00;61487.56;4978925;28;20379;-72
2023/06/13 10:47:20;;;;;;;11.45;5.57;;;;;;;-144.87;100.00;61487.56;4975950;28;20038;-70
2023/06/13 10:49:52;;;;;;;12.40;6.17;;;;;;;-144.87;100.00;61487.56;4992700;28;20038;-72
2023/06/13 10:52:20;;;;;;;15.30;6.15;;;;;;;-144.87;100.00;61487.56;4983970;28;20128;-72
2023/06/13 10:54:54;;;;;;;13.82;6.18;;;;;;;-144.87;100.00;61487.56;4973257;28;20104;-71
2023/06/13 10:57:21;;;;;;;9.40;5.97;;;;;;;-144.87;100.00;61487.56;4985884;28;20125;-72
2023/06/13 10:59:49;;;;;;;10.70;5.90;;;;;;;-144.87;100.00;61487.56;4986901;28;20113;-71
2023/06/13 11:02:17;;;;;;;11.80;6.00;;;;;;;-144.87;100.00;61487.56;4995092;28;20152;-71
2023/06/13 11:04:51;;;;;;;11.38;5.45;;;;;;;-144.87;100.00;61487.56;4989376;28;20048;-71
2023/06/13 11:07:23;;;;;;;14.45;5.93;;;;;;;-144.87;100.00;61487.56;4985250;28;20037;-70